Time;durP1;ratioP1;P1;durP2;ratioP2;P2;SDS_P1;SDS_P2;PMS_P1;PMS_P2;Temp;Humidity;BMP_temperature;BMP_pressure;BME280_temperature;BME280_humidity;BME280_pressure;Samples;Min_cycle;Max_cycle;Signal;HPM_P1;HPM_P2
2022/09/16 00:00:15;;;;;;;4.95;0.73;;;12.40;99.90;;;;;;5052260;28;20127;-49
2022/09/16 00:02:43;;;;;;;4.78;0.80;;;12.50;99.90;;;;;;5034000;28;20057;-49
2022/09/16 00:05:10;;;;;;;3.92;0.80;;;12.50;99.90;;;;;;5052456;28;20414;-48
2022/09/16 00:07:36;;;;;;;7.97;0.90;;;12.50;99.90;;;;;;5034095;28;20069;-48
2022/09/16 00:10:03;;;;;;;3.67;1.05;;;12.50;99.90;;;;;;5034377;28;20041;-48
2022/09/16 00:12:30;;;;;;;9.57;1.00;;;12.50;99.90;;;;;;5030581;28;20041;-51
2022/09/16 00:14:57;;;;;;;5.18;1.15;;;12.50;99.90;;;;;;5034490;28;20123;-46
2022/09/16 00:17:24;;;;;;;4.00;0.85;;;12.50;99.90;;;;;;5052669;28;20453;-50
2022/09/16 00:19:52;;;;;;;7.68;1.33;;;12.50;99.90;;;;;;5052112;28;20557;-48
2022/09/16 00:22:19;;;;;;;6.65;1.10;;;12.50;99.90;;;;;;5053109;28;20052;-47
2022/09/16 00:24:45;;;;;;;7.65;1.17;;;12.50;99.90;;;;;;5051061;28;20396;-46
2022/09/16 00:27:12;;;;;;;7.35;0.95;;;12.50;99.90;;;;;;5051121;28;20059;-47
2022/09/16 00:29:39;;;;;;;4.60;0.75;;;12.50;99.90;;;;;;5034085;28;20477;-47
2022/09/16 00:32:06;;;;;;;5.05;1.08;;;12.50;99.90;;;;;;5029247;28;20085;-51
2022/09/16 00:34:32;;;;;;;4.15;0.90;;;12.50;99.90;;;;;;5030548;28;20080;-51
2022/09/16 00:37:02;;;;;;;6.28;1.00;;;12.50;99.90;;;;;;5052516;28;20084;-50
2022/09/16 00:39:28;;;;;;;7.72;1.13;;;12.50;99.90;;;;;;5053425;28;20503;-46
2022/09/16 00:41:55;;;;;;;5.32;0.80;;;12.50;99.90;;;;;;5030415;28;20136;-47
2022/09/16 00:44:57;;;;;;;2.80;0.80;;;12.50;99.90;;;;;;5035100;28;20426;-47
2022/09/16 00:47:27;;;;;;;4.18;0.70;;;12.50;99.90;;;;;;5030130;28;20077;-51
2022/09/16 00:49:54;;;;;;;7.38;0.90;;;12.50;99.90;;;;;;5038311;28;20091;-45
2022/09/16 00:52:22;;;;;;;5.93;0.70;;;12.50;99.90;;;;;;5051835;28;20045;-51
2022/09/16 00:54:49;;;;;;;5.97;1.33;;;12.50;99.90;;;;;;5051035;28;20044;-46
2022/09/16 00:57:16;;;;;;;6.00;1.15;;;12.50;99.90;;;;;;5043432;28;20111;-50
2022/09/16 00:59:45;;;;;;;6.43;0.90;;;12.50;99.90;;;;;;5049230;28;20424;-49
2022/09/16 01:02:13;;;;;;;4.65;1.05;;;12.50;99.90;;;;;;5034550;28;20048;-48
2022/09/16 01:04:43;;;;;;;5.78;1.00;;;12.50;99.90;;;;;;5051542;28;20131;-51
2022/09/16 01:07:10;;;;;;;3.38;0.73;;;12.60;99.90;;;;;;5049775;28;20055;-48
2022/09/16 01:09:38;;;;;;;10.45;1.20;;;12.50;99.90;;;;;;5046768;28;20110;-46
2022/09/16 01:12:05;;;;;;;5.40;1.15;;;12.50;99.90;;;;;;5031243;28;20132;-51
2022/09/16 01:17:22;;;;;;;3.72;0.80;;;12.50;99.90;;;;;;5047374;28;20057;-46
2022/09/16 01:20:02;;;;;;;6.85;1.70;;;12.60;99.90;;;;;;5048851;28;20045;-51
2022/09/16 01:22:38;;;;;;;5.28;0.90;;;12.60;99.90;;;;;;5034286;28;20052;-47
2022/09/16 01:25:10;;;;;;;5.85;0.95;;;12.60;99.90;;;;;;5034274;28;20110;-49
2022/09/16 01:28:03;;;;;;;4.95;0.82;;;12.60;99.90;;;;;;5033314;28;20239;-45
2022/09/16 01:30:51;;;;;;;5.10;1.00;;;12.60;99.90;;;;;;5021358;28;20140;-49
2022/09/16 01:33:24;;;;;;;3.60;0.82;;;12.60;99.90;;;;;;5050169;28;20402;-50
2022/09/16 01:35:59;;;;;;;5.00;1.00;;;12.50;99.90;;;;;;5051027;28;20124;-48
2022/09/16 01:38:38;;;;;;;8.98;1.17;;;12.50;99.90;;;;;;5030693;28;20465;-47
2022/09/16 01:41:08;;;;;;;4.72;0.90;;;12.50;99.90;;;;;;5050313;28;20084;-48
2022/09/16 01:43:40;;;;;;;4.43;1.20;;;12.50;99.90;;;;;;5041919;28;20057;-46
2022/09/16 01:46:11;;;;;;;3.42;0.90;;;12.50;99.90;;;;;;5050739;28;20386;-48
2022/09/16 01:48:41;;;;;;;5.13;1.00;;;12.60;99.90;;;;;;5048210;28;20111;-51
2022/09/16 01:51:10;;;;;;;5.72;1.10;;;12.60;99.90;;;;;;5037504;28;20132;-49
2022/09/16 01:53:37;;;;;;;6.78;1.00;;;12.60;99.90;;;;;;5035431;28;20155;-48
2022/09/16 01:56:06;;;;;;;3.40;0.80;;;12.60;99.90;;;;;;5059530;28;20479;-50
2022/09/16 01:58:38;;;;;;;7.60;1.13;;;12.50;99.90;;;;;;5055313;28;20560;-48
2022/09/16 02:01:06;;;;;;;1.95;0.57;;;12.60;99.90;;;;;;5072443;28;20058;-48
2022/09/16 02:03:36;;;;;;;3.90;0.75;;;12.60;99.90;;;;;;5074633;28;20139;-48
2022/09/16 02:06:04;;;;;;;5.72;1.20;;;12.50;99.90;;;;;;5070751;28;20128;-47
2022/09/16 02:08:33;;;;;;;8.40;1.42;;;12.60;99.90;;;;;;5073894;28;20094;-50
2022/09/16 02:11:00;;;;;;;6.43;1.35;;;12.60;99.90;;;;;;5072699;28;20063;-50
2022/09/16 02:13:29;;;;;;;5.07;1.25;;;12.60;99.90;;;;;;5065680;28;20163;-47
2022/09/16 02:15:58;;;;;;;4.00;0.80;;;12.50;99.90;;;;;;5063397;28;20437;-50
2022/09/16 02:18:27;;;;;;;4.75;1.23;;;12.50;99.90;;;;;;5057620;28;20403;-47
2022/09/16 02:20:55;;;;;;;7.22;1.08;;;12.50;99.90;;;;;;5073451;28;20476;-45
2022/09/16 02:23:23;;;;;;;4.20;1.00;;;12.40;99.90;;;;;;5074000;28;20067;-48
2022/09/16 02:25:50;;;;;;;10.50;1.00;;;12.50;99.90;;;;;;5059871;28;20143;-51
2022/09/16 02:28:20;;;;;;;3.13;0.80;;;12.40;99.90;;;;;;5055725;28;20139;-52
2022/09/16 02:30:49;;;;;;;6.28;1.00;;;12.40;99.90;;;;;;5058925;28;20508;-51
2022/09/16 02:33:16;;;;;;;4.80;0.95;;;12.40;99.90;;;;;;5072050;28;20103;-48
2022/09/16 02:35:43;;;;;;;4.18;0.80;;;12.30;99.90;;;;;;5073193;28;20135;-48
2022/09/16 02:38:12;;;;;;;4.68;0.90;;;12.30;99.90;;;;;;5067219;28;20051;-48
2022/09/16 02:40:43;;;;;;;6.30;1.17;;;12.30;99.90;;;;;;5073622;28;20165;-47
2022/09/16 02:43:10;;;;;;;3.17;0.57;;;12.30;99.90;;;;;;5063236;28;20092;-48
2022/09/16 02:45:39;;;;;;;2.90;0.80;;;12.20;99.90;;;;;;5061575;28;20305;-49
2022/09/16 02:48:08;;;;;;;4.60;0.80;;;12.10;99.90;;;;;;5073876;28;20544;-47
2022/09/16 02:50:38;;;;;;;7.40;1.00;;;12.10;99.90;;;;;;5073163;28;20552;-51
2022/09/16 02:53:08;;;;;;;3.55;0.68;;;12.10;99.90;;;;;;5073497;28;20469;-48
2022/09/16 02:55:40;;;;;;;4.40;0.90;;;12.10;99.90;;;;;;5066095;28;20144;-50
2022/09/16 02:58:07;;;;;;;4.30;0.85;;;12.10;99.90;;;;;;5053400;28;20091;-48
2022/09/16 03:00:36;;;;;;;6.88;1.55;;;12.10;99.90;;;;;;5035252;28;20063;-48
2022/09/16 03:03:03;;;;;;;3.50;0.75;;;12.00;99.90;;;;;;5052385;28;20076;-48
2022/09/16 03:05:29;;;;;;;7.13;1.10;;;12.00;99.90;;;;;;5050929;28;20051;-47
2022/09/16 03:07:56;;;;;;;4.47;0.90;;;12.00;99.90;;;;;;5035193;28;20087;-48
2022/09/16 03:10:23;;;;;;;7.68;1.27;;;12.00;99.90;;;;;;5052640;28;20053;-50
2022/09/16 03:12:55;;;;;;;6.43;0.82;;;12.00;99.90;;;;;;5052249;28;20041;-49
2022/09/16 03:15:24;;;;;;;;;;;12.00;99.90;;;;;;5050807;28;20460;-51
2022/09/16 03:18:01;;;;;;;3.78;0.75;;;12.00;99.90;;;;;;5053165;28;20344;-44
2022/09/16 03:20:31;;;;;;;3.55;1.08;;;11.90;99.90;;;;;;5029981;28;20143;-50
2022/09/16 03:23:02;;;;;;;3.88;0.70;;;11.90;99.90;;;;;;5034014;28;20172;-51
2022/09/16 03:25:34;;;;;;;3.50;0.93;;;12.00;99.90;;;;;;5052281;28;20139;-48
2022/09/16 03:28:04;;;;;;;6.03;1.10;;;12.00;99.90;;;;;;5051932;28;20060;-47
2022/09/16 03:30:31;;;;;;;2.83;0.70;;;12.00;99.90;;;;;;5032148;28;20512;-48
2022/09/16 03:32:59;;;;;;;4.68;0.80;;;12.00;99.90;;;;;;5032861;28;20049;-49
2022/09/16 03:35:28;;;;;;;4.68;1.10;;;12.00;99.90;;;;;;5029212;28;20087;-49
2022/09/16 03:37:55;;;;;;;5.15;1.05;;;12.00;99.90;;;;;;5026942;28;20073;-47
2022/09/16 03:40:22;;;;;;;7.50;1.15;;;12.00;99.90;;;;;;5049327;28;20089;-51
2022/09/16 03:42:49;;;;;;;3.08;1.00;;;12.00;99.90;;;;;;5051422;28;20126;-46
2022/09/16 03:45:18;;;;;;;5.80;0.82;;;12.00;99.90;;;;;;5051561;28;20083;-49
2022/09/16 03:47:45;;;;;;;4.38;0.90;;;12.00;99.90;;;;;;5051981;28;20370;-48
2022/09/16 03:50:13;;;;;;;6.78;1.20;;;12.00;99.90;;;;;;5033201;28;20124;-45
2022/09/16 03:52:39;;;;;;;5.85;1.13;;;12.00;99.90;;;;;;5032439;28;20053;-53
2022/09/16 03:55:07;;;;;;;4.55;1.05;;;12.00;99.90;;;;;;5053044;28;20080;-56
2022/09/16 03:57:33;;;;;;;7.53;1.40;;;12.00;99.90;;;;;;5053874;28;20084;-57
2022/09/16 04:00:00;;;;;;;6.65;0.98;;;12.00;99.90;;;;;;5071266;28;20051;-55
2022/09/16 04:02:28;;;;;;;7.32;1.15;;;12.00;99.90;;;;;;5071176;28;20044;-56
2022/09/16 04:04:55;;;;;;;5.78;0.88;;;12.00;99.90;;;;;;5052396;28;20143;-55
2022/09/16 04:07:22;;;;;;;5.28;1.23;;;12.00;99.90;;;;;;5071617;28;20505;-55
2022/09/16 04:09:48;;;;;;;7.32;1.05;;;12.00;99.90;;;;;;5052801;28;20093;-57
2022/09/16 04:12:15;;;;;;;3.10;0.75;;;12.00;99.90;;;;;;5054424;28;20109;-51
2022/09/16 04:14:42;;;;;;;7.40;0.88;;;11.90;99.90;;;;;;5053027;28;20139;-54
2022/09/16 04:17:09;;;;;;;6.32;0.98;;;11.90;99.90;;;;;;5069097;28;20092;-56
2022/09/16 04:19:37;;;;;;;4.20;1.00;;;11.90;99.90;;;;;;5072444;28;20084;-54
2022/09/16 04:22:04;;;;;;;7.68;1.20;;;11.90;99.90;;;;;;5054157;28;20060;-55
2022/09/16 04:24:31;;;;;;;7.07;1.25;;;11.80;99.90;;;;;;5054380;28;20048;-48
2022/09/16 04:26:58;;;;;;;6.15;1.00;;;11.90;99.90;;;;;;5052425;28;20052;-53
2022/09/16 04:29:25;;;;;;;8.55;1.38;;;11.80;99.90;;;;;;5070285;28;20080;-45
2022/09/16 04:31:51;;;;;;;6.55;1.30;;;11.80;99.90;;;;;;5071673;28;20106;-51
2022/09/16 04:34:18;;;;;;;3.40;1.02;;;11.80;99.90;;;;;;5054534;28;20139;-49
2022/09/16 04:36:46;;;;;;;5.05;1.20;;;11.70;99.90;;;;;;5052188;28;20496;-50
2022/09/16 04:39:13;;;;;;;2.90;0.70;;;11.70;99.90;;;;;;5052846;28;20079;-53
2022/09/16 04:41:40;;;;;;;5.95;1.17;;;11.70;99.90;;;;;;5070332;28;20579;-53
2022/09/16 04:44:07;;;;;;;7.32;1.10;;;11.70;99.90;;;;;;5071615;28;20504;-51
2022/09/16 04:46:33;;;;;;;6.03;1.10;;;11.70;99.90;;;;;;5071211;28;20074;-51
2022/09/16 04:49:00;;;;;;;6.07;1.13;;;11.70;99.90;;;;;;5070313;28;20516;-50
2022/09/16 04:51:27;;;;;;;5.40;1.00;;;11.70;99.90;;;;;;5052941;28;20128;-48
2022/09/16 04:53:55;;;;;;;7.15;1.23;;;11.70;99.90;;;;;;5052729;28;20488;-52
2022/09/16 04:56:23;;;;;;;3.90;0.80;;;11.70;99.90;;;;;;5071517;28;20044;-51
2022/09/16 04:58:51;;;;;;;4.00;1.15;;;11.70;99.90;;;;;;5069373;28;20052;-46
2022/09/16 05:01:19;;;;;;;7.20;1.30;;;11.60;99.90;;;;;;5050928;28;20139;-43
2022/09/16 05:03:47;;;;;;;5.50;1.10;;;11.60;99.90;;;;;;5055727;28;20044;-50
2022/09/16 05:06:15;;;;;;;3.38;1.00;;;11.60;99.90;;;;;;5054083;28;20135;-48
2022/09/16 05:08:42;;;;;;;4.50;1.00;;;11.60;99.90;;;;;;5069903;28;20471;-50
2022/09/16 05:11:11;;;;;;;6.68;1.13;;;11.60;99.90;;;;;;5067511;28;20449;-49
2022/09/16 05:13:38;;;;;;;8.43;1.65;;;11.60;99.90;;;;;;5068918;28;20135;-45
2022/09/16 05:16:06;;;;;;;5.57;1.10;;;11.50;99.90;;;;;;5068260;28;20409;-49
2022/09/16 05:18:32;;;;;;;8.68;1.23;;;11.50;99.90;;;;;;5070917;28;20052;-50
2022/09/16 05:20:59;;;;;;;8.15;1.10;;;11.50;99.90;;;;;;5071624;28;20385;-48
2022/09/16 05:23:26;;;;;;;5.38;1.33;;;11.40;99.90;;;;;;5040965;28;20506;-43
2022/09/16 05:25:53;;;;;;;6.47;1.23;;;11.40;99.90;;;;;;5056706;28;20048;-51
2022/09/16 05:28:21;;;;;;;3.83;1.17;;;11.40;99.90;;;;;;5070898;28;20057;-51
2022/09/16 05:30:48;;;;;;;7.93;1.55;;;11.40;99.90;;;;;;5071921;28;20130;-50
2022/09/16 05:33:15;;;;;;;6.63;1.15;;;11.30;99.90;;;;;;5050459;28;20113;-47
2022/09/16 05:35:41;;;;;;;4.85;1.10;;;11.30;99.90;;;;;;5053852;28;20545;-52
2022/09/16 05:38:09;;;;;;;6.82;1.60;;;11.30;99.90;;;;;;5050253;28;20059;-51
2022/09/16 05:40:35;;;;;;;6.05;1.23;;;11.30;99.90;;;;;;5073648;28;20052;-51
2022/09/16 05:43:02;;;;;;;7.78;1.23;;;11.20;99.90;;;;;;5072470;28;20079;-48
2022/09/16 05:45:30;;;;;;;5.82;1.40;;;11.20;99.90;;;;;;5054075;28;20129;-52
2022/09/16 05:47:57;;;;;;;5.97;1.38;;;11.20;99.90;;;;;;5059469;28;20481;-47
2022/09/16 05:50:24;;;;;;;14.95;2.15;;;11.20;99.90;;;;;;5057117;28;20084;-50
2022/09/16 05:52:50;;;;;;;8.50;1.80;;;11.20;99.90;;;;;;5072921;28;20048;-43
2022/09/16 05:55:17;;;;;;;8.02;1.55;;;11.20;99.90;;;;;;5056687;28;20060;-52
2022/09/16 05:57:44;;;;;;;8.52;1.33;;;11.30;99.90;;;;;;5055811;28;20131;-46
2022/09/16 06:00:13;;;;;;;10.07;1.77;;;11.20;99.90;;;;;;5051620;28;20053;-40
2022/09/16 06:02:41;;;;;;;8.50;1.15;;;11.30;99.90;;;;;;5048931;28;20056;-43
2022/09/16 06:05:08;;;;;;;9.82;1.27;;;11.30;99.90;;;;;;5045853;28;20044;-40
2022/09/16 06:07:35;;;;;;;9.73;1.20;;;11.40;99.90;;;;;;5046562;28;20487;-51
2022/09/16 06:10:02;;;;;;;11.30;1.50;;;11.40;99.90;;;;;;5068138;28;20044;-51
2022/09/16 06:12:28;;;;;;;8.80;1.15;;;11.40;99.90;;;;;;5063095;28;20045;-36
2022/09/16 06:14:55;;;;;;;8.45;1.45;;;11.50;99.90;;;;;;5053593;28;20061;-44
2022/09/16 06:17:22;;;;;;;7.82;1.20;;;11.50;99.90;;;;;;5071601;28;20522;-50
2022/09/16 06:19:50;;;;;;;9.20;1.40;;;11.60;99.90;;;;;;5072037;28;20047;-54
2022/09/16 06:22:17;;;;;;;18.45;1.90;;;11.60;99.90;;;;;;5075411;28;20052;-56
2022/09/16 06:24:44;;;;;;;9.00;1.27;;;11.60;99.90;;;;;;5076862;28;20127;-54
2022/09/16 06:27:11;;;;;;;12.15;1.83;;;11.70;99.90;;;;;;5072299;28;20083;-54
2022/09/16 06:29:38;;;;;;;12.65;1.40;;;11.60;99.90;;;;;;5071601;28;20132;-53
2022/09/16 06:32:07;;;;;;;10.88;1.52;;;11.70;99.90;;;;;;5070777;28;20102;-54
2022/09/16 06:34:34;;;;;;;11.10;1.90;;;11.70;99.90;;;;;;5046156;28;20150;-52
2022/09/16 06:37:02;;;;;;;13.27;1.70;;;11.70;99.90;;;;;;5073875;28;20084;-50
2022/09/16 06:39:29;;;;;;;14.32;1.80;;;11.80;99.90;;;;;;5071814;28;20530;-49
2022/09/16 06:41:59;;;;;;;11.75;1.80;;;11.90;99.90;;;;;;5065631;28;20440;-47
2022/09/16 06:44:25;;;;;;;8.65;1.30;;;11.90;99.90;;;;;;5069906;28;20130;-51
2022/09/16 06:46:52;;;;;;;6.53;1.40;;;12.00;99.90;;;;;;5053284;28;20493;-48
2022/09/16 06:49:19;;;;;;;10.38;1.70;;;12.10;99.90;;;;;;5045247;28;20580;-50
2022/09/16 06:51:45;;;;;;;10.07;1.92;;;12.20;99.90;;;;;;5045666;28;20139;-41
2022/09/16 06:54:14;;;;;;;13.95;1.85;;;12.30;99.90;;;;;;5047602;28;20087;-51
2022/09/16 06:56:40;;;;;;;19.17;1.90;;;12.30;99.90;;;;;;5068628;28;20060;-46
2022/09/16 06:59:07;;;;;;;15.02;2.15;;;12.40;99.90;;;;;;5051360;28;20057;-49
2022/09/16 07:01:34;;;;;;;14.93;2.10;;;12.50;99.90;;;;;;5049165;28;20048;-51
2022/09/16 07:04:04;;;;;;;18.42;2.88;;;12.60;99.90;;;;;;5034215;28;20041;-48
2022/09/16 07:06:31;;;;;;;8.65;1.75;;;12.60;99.90;;;;;;5054437;28;20099;-50
2022/09/16 07:08:58;;;;;;;13.57;1.50;;;12.70;99.90;;;;;;5031431;28;20454;-46
2022/09/16 07:11:26;;;;;;;15.93;2.03;;;12.70;99.90;;;;;;5037549;28;20151;-50
2022/09/16 07:13:53;;;;;;;14.60;1.95;;;12.80;99.90;;;;;;5051944;28;20083;-51
2022/09/16 07:16:21;;;;;;;9.40;1.58;;;12.90;99.90;;;;;;5049059;28;20489;-50
2022/09/16 07:18:49;;;;;;;9.60;1.40;;;13.00;99.90;;;;;;5052110;28;20076;-49
2022/09/16 07:21:17;;;;;;;18.00;1.85;;;13.10;99.90;;;;;;5054721;28;20498;-45
2022/09/16 07:23:44;;;;;;;14.32;2.08;;;13.20;99.90;;;;;;5042102;28;20102;-42
2022/09/16 07:26:11;;;;;;;11.25;1.90;;;13.30;99.90;;;;;;5033924;28;20136;-51
2022/09/16 07:28:40;;;;;;;14.40;2.13;;;13.40;99.90;;;;;;5048345;28;20444;-46
2022/09/16 07:31:09;;;;;;;10.25;1.63;;;13.50;99.90;;;;;;5037611;28;20865;-49
2022/09/16 07:33:37;;;;;;;14.80;1.90;;;13.60;99.90;;;;;;5019772;28;20084;-51
2022/09/16 07:36:05;;;;;;;11.73;1.73;;;13.60;99.90;;;;;;5052970;28;20132;-49
2022/09/16 07:38:31;;;;;;;9.45;1.52;;;13.70;99.90;;;;;;5065722;28;20048;-48
2022/09/16 07:41:05;;;;;;;11.43;1.60;;;13.70;99.90;;;;;;5053256;28;20080;-48
2022/09/16 07:43:32;;;;;;;14.93;2.03;;;13.90;99.90;;;;;;5046942;28;20098;-51
2022/09/16 07:46:00;;;;;;;12.90;1.63;;;14.00;99.90;;;;;;5048143;28;20057;-45
2022/09/16 07:48:28;;;;;;;12.20;1.63;;;14.10;99.90;;;;;;5051525;28;20036;-47
2022/09/16 07:50:56;;;;;;;14.25;1.70;;;14.20;99.90;;;;;;5048943;28;20143;-48
2022/09/16 07:53:23;;;;;;;14.43;2.00;;;14.40;99.90;;;;;;5029795;28;20057;-51
2022/09/16 07:55:50;;;;;;;11.73;1.70;;;14.50;99.90;;;;;;5050806;28;20542;-47
2022/09/16 07:58:17;;;;;;;12.20;1.75;;;14.60;99.90;;;;;;5034273;28;20091;-47
2022/09/16 08:00:44;;;;;;;11.30;1.40;;;14.70;99.90;;;;;;5049658;28;20057;-50
2022/09/16 08:03:12;;;;;;;9.85;1.67;;;14.80;99.90;;;;;;5051581;28;20067;-51
2022/09/16 08:05:39;;;;;;;14.45;1.60;;;14.90;99.90;;;;;;5034506;28;20541;-49
2022/09/16 08:08:05;;;;;;;10.20;1.92;;;15.00;99.90;;;;;;5033958;28;20139;-42
2022/09/16 08:10:32;;;;;;;13.95;2.25;;;15.10;99.90;;;;;;5050552;28;20063;-47
2022/09/16 08:12:59;;;;;;;9.70;1.92;;;15.20;99.90;;;;;;5022281;28;20055;-50
2022/09/16 08:15:26;;;;;;;11.18;1.98;;;15.30;99.90;;;;;;5046823;28;20069;-47
2022/09/16 08:17:53;;;;;;;9.73;1.70;;;15.40;99.90;;;;;;5031951;28;20405;-43
2022/09/16 08:20:21;;;;;;;11.10;1.90;;;15.50;99.70;;;;;;5042791;28;20063;-47
2022/09/16 08:22:47;;;;;;;16.50;2.03;;;15.60;99.30;;;;;;5051680;28;20135;-47
2022/09/16 08:25:14;;;;;;;15.23;1.88;;;15.70;98.90;;;;;;5047876;28;20053;-46
2022/09/16 08:27:41;;;;;;;8.02;1.80;;;15.80;98.50;;;;;;5050023;28;20084;-48
2022/09/16 08:30:09;;;;;;;12.68;2.03;;;15.90;97.90;;;;;;5059829;28;20409;-49
2022/09/16 08:32:36;;;;;;;20.95;1.80;;;16.00;97.50;;;;;;5053710;28;20099;-48
2022/09/16 08:35:03;;;;;;;11.18;1.92;;;16.00;97.60;;;;;;5053399;28;20134;-48
2022/09/16 08:37:31;;;;;;;15.20;2.13;;;16.20;97.30;;;;;;5071755;28;20080;-44
2022/09/16 08:39:58;;;;;;;14.98;1.73;;;16.20;96.70;;;;;;5063490;28;20455;-46
2022/09/16 08:42:46;;;;;;;12.65;2.33;;;16.20;96.70;;;;;;5051520;28;20135;-46
2022/09/16 08:45:19;;;;;;;14.15;2.13;;;16.20;96.70;;;;;;5049541;28;20048;-44
2022/09/16 08:47:53;;;;;;;18.33;2.10;;;16.20;96.40;;;;;;5032486;28;20107;-46
2022/09/16 08:50:23;;;;;;;15.18;2.22;;;16.40;96.40;;;;;;5034134;28;20049;-49
2022/09/16 08:52:51;;;;;;;15.15;2.47;;;16.60;96.20;;;;;;5049114;28;20405;-44
2022/09/16 08:55:22;;;;;;;16.23;2.40;;;16.70;95.70;;;;;;5050973;28;20064;-43
2022/09/16 08:57:53;;;;;;;18.00;2.13;;;16.60;95.30;;;;;;5071350;28;20125;-50
2022/09/16 09:00:20;;;;;;;12.18;2.28;;;16.50;95.30;;;;;;5053975;28;20516;-49
2022/09/16 09:02:50;;;;;;;15.90;2.53;;;16.60;95.20;;;;;;5071433;28;20088;-47
2022/09/16 09:05:19;;;;;;;14.20;2.42;;;16.70;94.10;;;;;;5053816;28;20075;-51
2022/09/16 09:07:56;;;;;;;17.63;2.75;;;16.60;94.00;;;;;;5051503;28;20048;-51
2022/09/16 09:10:25;;;;;;;16.05;2.20;;;16.50;93.30;;;;;;5071439;28;20056;-51
2022/09/16 09:12:55;;;;;;;14.07;2.28;;;16.50;93.10;;;;;;5071364;28;20068;-50
2022/09/16 09:15:34;;;;;;;12.38;2.28;;;16.60;92.50;;;;;;5067768;28;20083;-46
2022/09/16 09:18:08;;;;;;;8.57;1.70;;;16.70;91.70;;;;;;5033887;28;20049;-47
2022/09/16 09:20:40;;;;;;;14.60;2.35;;;16.90;91.40;;;;;;5040355;28;20049;-44
2022/09/16 09:23:16;;;;;;;;;;;17.00;91.00;;;;;;5061515;28;20088;-38
2022/09/16 09:25:45;;;;;;;11.10;1.95;;;17.10;91.00;;;;;;5049579;28;20376;-40
2022/09/16 09:28:22;;;;;;;14.32;2.33;;;17.20;91.40;;;;;;5051177;28;20084;-45
2022/09/16 09:30:54;;;;;;;20.10;2.08;;;17.40;90.60;;;;;;5051185;28;20397;-43
2022/09/16 09:33:25;;;;;;;12.02;2.15;;;17.50;89.70;;;;;;5049793;28;20045;-43
2022/09/16 09:36:11;;;;;;;12.20;2.05;;;17.50;87.90;;;;;;5032051;28;20077;-47
2022/09/16 09:39:03;;;;;;;11.90;2.00;;;17.50;87.10;;;;;;5054659;28;20052;-46
2022/09/16 09:41:31;;;;;;;9.63;2.00;;;17.60;86.30;;;;;;5053568;28;20103;-46
2022/09/16 09:44:00;;;;;;;10.55;1.83;;;17.70;87.20;;;;;;5065149;28;20552;-44
2022/09/16 09:46:29;;;;;;;10.43;1.90;;;17.80;86.20;;;;;;5050844;28;20721;-48
2022/09/16 09:48:57;;;;;;;12.98;1.80;;;17.90;85.30;;;;;;5051339;28;20448;-45
2022/09/16 09:51:26;;;;;;;9.95;2.08;;;18.10;84.40;;;;;;5051110;28;20055;-50
2022/09/16 09:53:56;;;;;;;13.70;2.10;;;18.20;84.40;;;;;;5031345;28;20037;-47
2022/09/16 09:56:26;;;;;;;9.27;1.77;;;18.30;82.90;;;;;;5055079;28;20088;-49
2022/09/16 09:58:57;;;;;;;9.48;1.80;;;18.40;82.50;;;;;;5053008;28;20574;-51
2022/09/16 10:01:24;;;;;;;9.52;1.80;;;18.50;82.00;;;;;;5062432;28;20856;-47
2022/09/16 10:03:51;;;;;;;13.13;2.10;;;18.60;82.60;;;;;;5053139;28;20500;-51
2022/09/16 10:06:18;;;;;;;10.63;1.85;;;18.70;81.60;;;;;;5037072;28;20088;-50
2022/09/16 10:08:51;;;;;;;9.05;1.60;;;18.80;80.60;;;;;;5031322;28;20091;-44
2022/09/16 10:11:20;;;;;;;12.43;2.00;;;18.90;78.00;;;;;;5066591;28;20575;-47
2022/09/16 10:13:48;;;;;;;12.68;1.63;;;18.70;79.60;;;;;;5072242;28;20095;-47
2022/09/16 10:16:16;;;;;;;11.18;2.03;;;18.60;79.40;;;;;;5034647;28;20072;-48
2022/09/16 10:18:43;;;;;;;12.98;1.73;;;18.50;80.00;;;;;;5033670;28;20409;-45
2022/09/16 10:21:12;;;;;;;13.18;2.33;;;18.40;80.20;;;;;;5043636;28;20048;-51
2022/09/16 10:23:39;;;;;;;17.70;2.17;;;18.20;81.40;;;;;;5047677;28;20053;-47
2022/09/16 10:26:08;;;;;;;12.65;2.15;;;18.00;85.00;;;;;;5068583;28;20048;-57
2022/09/16 10:28:36;;;;;;;11.45;1.83;;;17.70;88.10;;;;;;5053826;28;20123;-54
2022/09/16 10:31:03;;;;;;;12.27;1.90;;;17.20;88.70;;;;;;5059299;28;20152;-62
2022/09/16 10:33:31;;;;;;;16.33;2.53;;;16.90;90.30;;;;;;5074954;28;20420;-63
2022/09/16 10:35:59;;;;;;;14.70;2.15;;;16.80;91.50;;;;;;5046057;28;20092;-53
2022/09/16 10:38:33;;;;;;;12.07;2.10;;;16.80;92.10;;;;;;5056128;28;20453;-57
2022/09/16 10:41:03;;;;;;;9.40;1.60;;;16.90;92.90;;;;;;5062469;28;20126;-52
2022/09/16 10:43:30;;;;;;;9.50;1.85;;;17.00;93.10;;;;;;5064276;28;20048;-51
2022/09/16 10:45:58;;;;;;;13.05;2.28;;;17.10;92.90;;;;;;5065230;28;20552;-52
2022/09/16 10:48:26;;;;;;;12.30;2.08;;;17.30;92.70;;;;;;5073637;28;20091;-50
2022/09/16 10:50:54;;;;;;;8.15;1.75;;;17.30;92.10;;;;;;5051742;28;20079;-49
2022/09/16 10:53:27;;;;;;;11.40;1.98;;;17.40;92.20;;;;;;5054627;28;20098;-48
2022/09/16 10:55:58;;;;;;;10.55;1.85;;;17.50;92.10;;;;;;5055531;28;20527;-47
2022/09/16 10:58:25;;;;;;;16.05;1.95;;;17.60;91.50;;;;;;5062962;28;20049;-49
2022/09/16 11:01:01;;;;;;;10.75;2.00;;;17.70;91.00;;;;;;5071467;28;20441;-48
2022/09/16 11:03:44;;;;;;;9.25;1.75;;;17.70;90.80;;;;;;5040777;28;20140;-47
2022/09/16 11:06:28;;;;;;;10.65;1.83;;;17.90;90.70;;;;;;5032911;28;20507;-51
2022/09/16 11:09:01;;;;;;;12.30;1.75;;;17.90;90.40;;;;;;5053988;28;20100;-48
2022/09/16 11:11:38;;;;;;;12.63;2.03;;;17.90;90.00;;;;;;5062604;28;20135;-48
2022/09/16 11:14:07;;;;;;;8.38;1.60;;;18.00;90.00;;;;;;5069054;28;20476;-50
2022/09/16 11:16:48;;;;;;;17.45;2.33;;;18.10;89.90;;;;;;5062279;28;20098;-49
2022/09/16 11:19:18;;;;;;;13.98;2.10;;;18.20;90.10;;;;;;5063444;28;20084;-50
2022/09/16 11:21:54;;;;;;;7.72;1.50;;;18.40;89.60;;;;;;5054155;28;20057;-49
2022/09/16 11:24:33;;;;;;;9.70;1.40;;;18.50;89.20;;;;;;5036785;28;20443;-48
2022/09/16 11:27:04;;;;;;;8.23;1.40;;;18.50;86.80;;;;;;5034441;28;20136;-49
2022/09/16 11:29:46;;;;;;;9.23;1.38;;;18.40;84.70;;;;;;5074262;28;20084;-51
2022/09/16 11:32:18;;;;;;;7.70;1.67;;;18.40;84.10;;;;;;5074242;28;20502;-48
2022/09/16 11:34:55;;;;;;;7.82;1.52;;;18.40;84.30;;;;;;5073938;28;20091;-50
2022/09/16 11:37:24;;;;;;;12.48;1.63;;;18.50;83.40;;;;;;5052557;28;20099;-47
2022/09/16 11:40:08;;;;;;;9.43;1.70;;;18.60;84.00;;;;;;5053721;28;20132;-50
2022/09/16 11:42:36;;;;;;;10.75;1.73;;;18.60;83.60;;;;;;5035905;28;20056;-50
2022/09/16 11:45:18;;;;;;;11.60;1.90;;;18.50;83.90;;;;;;5035938;28;20044;-49
2022/09/16 11:47:48;;;;;;;;;;;18.40;83.60;;;;;;5053976;28;20473;-49
2022/09/16 11:50:33;;;;;;;8.35;1.75;;;18.40;84.60;;;;;;5053650;28;19921;-47
2022/09/16 11:53:22;;;;;;;10.10;2.05;;;18.20;85.90;;;;;;5035380;28;20049;-46
2022/09/16 11:55:52;;;;;;;14.38;1.75;;;18.10;87.50;;;;;;5033929;28;20452;-45
2022/09/16 11:58:26;;;;;;;14.25;2.05;;;18.00;89.20;;;;;;5033315;28;20045;-48
2022/09/16 12:00:55;;;;;;;10.07;2.03;;;18.10;88.10;;;;;;5033446;28;20085;-43
2022/09/16 12:03:28;;;;;;;11.70;1.77;;;18.20;87.10;;;;;;5016102;28;20513;-48
2022/09/16 12:06:02;;;;;;;9.45;1.75;;;18.40;87.10;;;;;;5033175;28;20084;-37
2022/09/16 12:08:31;;;;;;;13.60;1.63;;;18.60;85.80;;;;;;5017308;28;20049;-48
2022/09/16 12:10:59;;;;;;;10.73;1.48;;;18.90;83.80;;;;;;5035359;28;20091;-50
2022/09/16 12:13:28;;;;;;;8.25;1.40;;;19.10;82.50;;;;;;5053258;28;20053;-49
2022/09/16 12:15:57;;;;;;;15.43;2.55;;;19.30;81.60;;;;;;5033146;28;20124;-61
2022/09/16 12:18:27;;;;;;;8.95;1.60;;;19.10;84.30;;;;;;5035690;28;20508;-58
2022/09/16 12:20:57;;;;;;;5.25;1.63;;;18.70;84.10;;;;;;5033496;28;20095;-60
2022/09/16 12:23:27;;;;;;;5.78;1.13;;;18.10;85.60;;;;;;5060105;28;20130;-57
2022/09/16 12:26:00;;;;;;;10.18;1.40;;;17.70;87.30;;;;;;5052829;28;20057;-53
2022/09/16 12:28:31;;;;;;;7.35;1.42;;;17.40;89.20;;;;;;5041310;28;20449;-47
2022/09/16 12:31:03;;;;;;;8.50;1.63;;;17.10;90.10;;;;;;5042362;28;20049;-48
2022/09/16 12:33:33;;;;;;;7.30;1.50;;;17.00;90.80;;;;;;5036598;28;20394;-52
2022/09/16 12:36:05;;;;;;;14.27;1.48;;;17.00;90.70;;;;;;5052778;28;20428;-51
2022/09/16 12:38:32;;;;;;;7.10;1.35;;;17.20;91.00;;;;;;5035136;28;20140;-46
2022/09/16 12:41:10;;;;;;;10.18;1.65;;;17.40;91.40;;;;;;5048277;28;20086;-50
2022/09/16 12:43:52;;;;;;;9.80;1.60;;;17.60;91.00;;;;;;5047634;28;20459;-45
2022/09/16 12:46:46;;;;;;;12.25;2.05;;;17.70;90.60;;;;;;5032761;28;20136;-52
2022/09/16 12:49:33;;;;;;;9.07;1.80;;;17.90;90.60;;;;;;5015003;28;20049;-45
2022/09/16 12:52:21;;;;;;;10.55;1.98;;;18.10;90.90;;;;;;5032659;28;20041;-46
2022/09/16 12:55:30;;;;;;;16.63;2.60;;;18.20;90.10;;;;;;5023943;28;20083;-45
2022/09/16 12:58:07;;;;;;;12.15;2.15;;;18.20;90.10;;;;;;5034189;28;20453;-44